sensor_id;sensor_type;location;lat;lon;timestamp;P1;durP1;ratioP1;P2;durP2;ratioP2
37483;SDS011;23337;52.212;9.926;2023-09-18T00:02:24;5.40;;;4.53;;
37483;SDS011;23337;52.212;9.926;2023-09-18T00:04:50;6.03;;;5.10;;
37483;SDS011;23337;52.212;9.926;2023-09-18T00:07:16;5.30;;;4.87;;
37483;SDS011;23337;52.212;9.926;2023-09-18T00:09:42;5.47;;;4.97;;
37483;SDS011;23337;52.212;9.926;2023-09-18T00:12:08;4.87;;;4.47;;
37483;SDS011;23337;52.212;9.926;2023-09-18T00:14:34;5.97;;;4.60;;
37483;SDS011;23337;52.212;9.926;2023-09-18T00:17:00;5.27;;;4.77;;
37483;SDS011;23337;52.212;9.926;2023-09-18T00:19:26;6.10;;;5.03;;
37483;SDS011;23337;52.212;9.926;2023-09-18T00:21:52;4.87;;;4.47;;
37483;SDS011;23337;52.212;9.926;2023-09-18T00:24:19;5.33;;;4.83;;
37483;SDS011;23337;52.212;9.926;2023-09-18T00:26:45;5.37;;;4.90;;
37483;SDS011;23337;52.212;9.926;2023-09-18T00:29:13;6.77;;;5.37;;
37483;SDS011;23337;52.212;9.926;2023-09-18T00:31:38;5.97;;;4.50;;
37483;SDS011;23337;52.212;9.926;2023-09-18T00:34:04;8.93;;;4.57;;
37483;SDS011;23337;52.212;9.926;2023-09-18T00:36:30;9.00;;;4.37;;
37483;SDS011;23337;52.212;9.926;2023-09-18T00:38:56;5.40;;;5.00;;
37483;SDS011;23337;52.212;9.926;2023-09-18T00:41:22;5.50;;;4.53;;
37483;SDS011;23337;52.212;9.926;2023-09-18T00:43:48;4.90;;;4.40;;
37483;SDS011;23337;52.212;9.926;2023-09-18T00:46:14;4.37;;;3.97;;
37483;SDS011;23337;52.212;9.926;2023-09-18T00:48:40;6.53;;;4.43;;
37483;SDS011;23337;52.212;9.926;2023-09-18T00:51:06;5.00;;;4.43;;
37483;SDS011;23337;52.212;9.926;2023-09-18T00:53:33;5.37;;;4.87;;
37483;SDS011;23337;52.212;9.926;2023-09-18T00:55:59;5.37;;;4.57;;
37483;SDS011;23337;52.212;9.926;2023-09-18T00:58:26;5.07;;;4.57;;
37483;SDS011;23337;52.212;9.926;2023-09-18T01:00:52;4.60;;;4.20;;
37483;SDS011;23337;52.212;9.926;2023-09-18T01:03:20;6.43;;;4.33;;
37483;SDS011;23337;52.212;9.926;2023-09-18T01:05:47;7.77;;;5.30;;
37483;SDS011;23337;52.212;9.926;2023-09-18T01:08:13;5.70;;;4.70;;
37483;SDS011;23337;52.212;9.926;2023-09-18T01:10:40;5.33;;;3.90;;
37483;SDS011;23337;52.212;9.926;2023-09-18T01:13:13;4.27;;;3.87;;
37483;SDS011;23337;52.212;9.926;2023-09-18T01:15:44;5.30;;;4.77;;
37483;SDS011;23337;52.212;9.926;2023-09-18T01:18:12;4.23;;;3.83;;
37483;SDS011;23337;52.212;9.926;2023-09-18T01:20:38;6.37;;;4.83;;
37483;SDS011;23337;52.212;9.926;2023-09-18T01:23:04;7.20;;;4.73;;
37483;SDS011;23337;52.212;9.926;2023-09-18T01:25:30;4.27;;;3.83;;
37483;SDS011;23337;52.212;9.926;2023-09-18T01:27:58;5.40;;;4.90;;
37483;SDS011;23337;52.212;9.926;2023-09-18T01:30:24;8.07;;;5.20;;
37483;SDS011;23337;52.212;9.926;2023-09-18T01:32:50;5.87;;;4.33;;
37483;SDS011;23337;52.212;9.926;2023-09-18T01:35:16;5.43;;;4.87;;
37483;SDS011;23337;52.212;9.926;2023-09-18T01:37:42;5.20;;;4.67;;
37483;SDS011;23337;52.212;9.926;2023-09-18T01:40:09;4.87;;;4.40;;
37483;SDS011;23337;52.212;9.926;2023-09-18T01:42:36;5.00;;;4.60;;
37483;SDS011;23337;52.212;9.926;2023-09-18T01:45:02;8.83;;;4.70;;
37483;SDS011;23337;52.212;9.926;2023-09-18T01:47:29;5.70;;;4.40;;
37483;SDS011;23337;52.212;9.926;2023-09-18T01:49:56;6.23;;;4.83;;
37483;SDS011;23337;52.212;9.926;2023-09-18T01:52:22;4.97;;;4.43;;
37483;SDS011;23337;52.212;9.926;2023-09-18T01:54:48;5.03;;;4.10;;
37483;SDS011;23337;52.212;9.926;2023-09-18T01:57:14;4.03;;;3.73;;
37483;SDS011;23337;52.212;9.926;2023-09-18T01:59:40;4.77;;;4.37;;
37483;SDS011;23337;52.212;9.926;2023-09-18T02:02:07;4.70;;;4.27;;
37483;SDS011;23337;52.212;9.926;2023-09-18T02:04:34;4.70;;;4.07;;
37483;SDS011;23337;52.212;9.926;2023-09-18T02:07:00;5.40;;;4.33;;
37483;SDS011;23337;52.212;9.926;2023-09-18T02:09:26;5.37;;;4.87;;
37483;SDS011;23337;52.212;9.926;2023-09-18T02:11:52;7.30;;;4.83;;
37483;SDS011;23337;52.212;9.926;2023-09-18T02:14:18;4.73;;;4.27;;
37483;SDS011;23337;52.212;9.926;2023-09-18T02:16:44;4.90;;;4.30;;
37483;SDS011;23337;52.212;9.926;2023-09-18T02:19:11;5.10;;;4.27;;
37483;SDS011;23337;52.212;9.926;2023-09-18T02:21:38;5.03;;;4.60;;
37483;SDS011;23337;52.212;9.926;2023-09-18T02:24:04;4.47;;;4.07;;
37483;SDS011;23337;52.212;9.926;2023-09-18T02:26:30;5.37;;;4.53;;
37483;SDS011;23337;52.212;9.926;2023-09-18T02:28:58;5.50;;;4.43;;
37483;SDS011;23337;52.212;9.926;2023-09-18T02:31:24;6.47;;;4.90;;
37483;SDS011;23337;52.212;9.926;2023-09-18T02:33:50;4.20;;;3.90;;
37483;SDS011;23337;52.212;9.926;2023-09-18T02:36:16;6.27;;;4.50;;
37483;SDS011;23337;52.212;9.926;2023-09-18T02:38:42;6.23;;;4.50;;
37483;SDS011;23337;52.212;9.926;2023-09-18T02:41:08;5.73;;;5.23;;
37483;SDS011;23337;52.212;9.926;2023-09-18T02:43:34;6.00;;;5.20;;
37483;SDS011;23337;52.212;9.926;2023-09-18T02:46:02;5.30;;;4.90;;
37483;SDS011;23337;52.212;9.926;2023-09-18T02:48:29;6.20;;;4.33;;
37483;SDS011;23337;52.212;9.926;2023-09-18T02:50:55;5.53;;;4.53;;
37483;SDS011;23337;52.212;9.926;2023-09-18T02:53:22;5.20;;;4.63;;
37483;SDS011;23337;52.212;9.926;2023-09-18T02:55:52;6.27;;;5.20;;
37483;SDS011;23337;52.212;9.926;2023-09-18T02:58:18;5.83;;;4.43;;
37483;SDS011;23337;52.212;9.926;2023-09-18T03:00:45;5.03;;;4.63;;
37483;SDS011;23337;52.212;9.926;2023-09-18T03:03:11;5.40;;;5.00;;
37483;SDS011;23337;52.212;9.926;2023-09-18T03:05:38;5.17;;;4.40;;
37483;SDS011;23337;52.212;9.926;2023-09-18T03:08:04;5.33;;;4.57;;
37483;SDS011;23337;52.212;9.926;2023-09-18T03:10:37;5.93;;;5.30;;
37483;SDS011;23337;52.212;9.926;2023-09-18T03:13:04;5.07;;;4.43;;
37483;SDS011;23337;52.212;9.926;2023-09-18T03:15:31;5.17;;;4.67;;
37483;SDS011;23337;52.212;9.926;2023-09-18T03:17:57;8.20;;;4.77;;
37483;SDS011;23337;52.212;9.926;2023-09-18T03:20:23;5.67;;;5.00;;
37483;SDS011;23337;52.212;9.926;2023-09-18T03:22:56;5.80;;;5.17;;
37483;SDS011;23337;52.212;9.926;2023-09-18T03:25:23;6.33;;;5.73;;
37483;SDS011;23337;52.212;9.926;2023-09-18T03:27:50;5.90;;;5.23;;
37483;SDS011;23337;52.212;9.926;2023-09-18T03:30:17;5.93;;;5.37;;
37483;SDS011;23337;52.212;9.926;2023-09-18T03:32:43;6.20;;;5.60;;
37483;SDS011;23337;52.212;9.926;2023-09-18T03:35:10;6.13;;;5.53;;
37483;SDS011;23337;52.212;9.926;2023-09-18T03:37:42;6.20;;;5.60;;
37483;SDS011;23337;52.212;9.926;2023-09-18T03:40:09;6.23;;;5.30;;
37483;SDS011;23337;52.212;9.926;2023-09-18T03:42:35;5.97;;;5.33;;
37483;SDS011;23337;52.212;9.926;2023-09-18T03:45:00;5.23;;;4.83;;
37483;SDS011;23337;52.212;9.926;2023-09-18T03:47:28;5.63;;;5.17;;
37483;SDS011;23337;52.212;9.926;2023-09-18T03:49:54;7.97;;;5.73;;
37483;SDS011;23337;52.212;9.926;2023-09-18T03:52:20;7.70;;;5.53;;
37483;SDS011;23337;52.212;9.926;2023-09-18T03:54:46;5.40;;;4.93;;
37483;SDS011;23337;52.212;9.926;2023-09-18T03:57:12;5.40;;;4.50;;
37483;SDS011;23337;52.212;9.926;2023-09-18T03:59:38;5.60;;;5.00;;
37483;SDS011;23337;52.212;9.926;2023-09-18T04:02:04;5.50;;;4.73;;
37483;SDS011;23337;52.212;9.926;2023-09-18T04:04:30;6.40;;;5.60;;
37483;SDS011;23337;52.212;9.926;2023-09-18T04:06:57;5.80;;;4.80;;
37483;SDS011;23337;52.212;9.926;2023-09-18T04:09:23;5.80;;;5.17;;
37483;SDS011;23337;52.212;9.926;2023-09-18T04:11:49;6.10;;;5.50;;
37483;SDS011;23337;52.212;9.926;2023-09-18T04:14:15;5.53;;;5.03;;
37483;SDS011;23337;52.212;9.926;2023-09-18T04:16:41;6.00;;;4.93;;
37483;SDS011;23337;52.212;9.926;2023-09-18T04:19:07;6.00;;;5.50;;
37483;SDS011;23337;52.212;9.926;2023-09-18T04:21:34;8.77;;;6.00;;
37483;SDS011;23337;52.212;9.926;2023-09-18T04:24:00;6.60;;;5.00;;
37483;SDS011;23337;52.212;9.926;2023-09-18T04:26:27;5.77;;;5.10;;
37483;SDS011;23337;52.212;9.926;2023-09-18T04:28:56;5.50;;;5.00;;
37483;SDS011;23337;52.212;9.926;2023-09-18T04:31:23;6.27;;;5.37;;
37483;SDS011;23337;52.212;9.926;2023-09-18T04:33:49;6.23;;;5.10;;
37483;SDS011;23337;52.212;9.926;2023-09-18T04:36:15;5.80;;;5.23;;
37483;SDS011;23337;52.212;9.926;2023-09-18T04:38:41;6.93;;;5.17;;
37483;SDS011;23337;52.212;9.926;2023-09-18T04:41:07;5.40;;;4.93;;
37483;SDS011;23337;52.212;9.926;2023-09-18T04:43:34;5.50;;;5.00;;
37483;SDS011;23337;52.212;9.926;2023-09-18T04:46:00;5.87;;;5.37;;
37483;SDS011;23337;52.212;9.926;2023-09-18T04:48:28;6.00;;;5.50;;
37483;SDS011;23337;52.212;9.926;2023-09-18T04:50:54;5.80;;;5.27;;
37483;SDS011;23337;52.212;9.926;2023-09-18T04:53:20;5.27;;;4.77;;
37483;SDS011;23337;52.212;9.926;2023-09-18T04:55:46;5.93;;;5.40;;
37483;SDS011;23337;52.212;9.926;2023-09-18T04:58:14;5.70;;;5.20;;
37483;SDS011;23337;52.212;9.926;2023-09-18T05:00:40;5.77;;;5.23;;
37483;SDS011;23337;52.212;9.926;2023-09-18T05:03:07;8.83;;;5.63;;
37483;SDS011;23337;52.212;9.926;2023-09-18T05:05:36;7.30;;;5.77;;
37483;SDS011;23337;52.212;9.926;2023-09-18T05:08:02;6.70;;;5.97;;
37483;SDS011;23337;52.212;9.926;2023-09-18T05:10:29;6.40;;;5.20;;
37483;SDS011;23337;52.212;9.926;2023-09-18T05:12:55;6.33;;;5.40;;
37483;SDS011;23337;52.212;9.926;2023-09-18T05:15:24;5.93;;;5.33;;
37483;SDS011;23337;52.212;9.926;2023-09-18T05:17:56;8.90;;;6.57;;
37483;SDS011;23337;52.212;9.926;2023-09-18T05:20:23;6.60;;;5.77;;
37483;SDS011;23337;52.212;9.926;2023-09-18T05:22:50;6.07;;;5.57;;
37483;SDS011;23337;52.212;9.926;2023-09-18T05:25:18;5.93;;;5.43;;
37483;SDS011;23337;52.212;9.926;2023-09-18T05:27:44;6.40;;;5.33;;
37483;SDS011;23337;52.212;9.926;2023-09-18T05:30:18;6.47;;;4.87;;
37483;SDS011;23337;52.212;9.926;2023-09-18T05:32:46;5.10;;;4.63;;
37483;SDS011;23337;52.212;9.926;2023-09-18T05:35:13;5.10;;;4.70;;
37483;SDS011;23337;52.212;9.926;2023-09-18T05:37:39;8.47;;;5.33;;
37483;SDS011;23337;52.212;9.926;2023-09-18T05:40:06;5.57;;;5.07;;
37483;SDS011;23337;52.212;9.926;2023-09-18T05:42:34;8.43;;;5.50;;
37483;SDS011;23337;52.212;9.926;2023-09-18T05:45:00;7.63;;;5.37;;
37483;SDS011;23337;52.212;9.926;2023-09-18T05:47:26;5.90;;;5.40;;
37483;SDS011;23337;52.212;9.926;2023-09-18T05:49:54;5.17;;;4.70;;
37483;SDS011;23337;52.212;9.926;2023-09-18T05:52:20;5.50;;;5.10;;
37483;SDS011;23337;52.212;9.926;2023-09-18T05:54:48;5.63;;;4.43;;
37483;SDS011;23337;52.212;9.926;2023-09-18T05:57:14;5.40;;;4.90;;
37483;SDS011;23337;52.212;9.926;2023-09-18T05:59:41;6.07;;;5.40;;
37483;SDS011;23337;52.212;9.926;2023-09-18T06:02:09;5.60;;;5.00;;
37483;SDS011;23337;52.212;9.926;2023-09-18T06:04:35;4.43;;;4.13;;
37483;SDS011;23337;52.212;9.926;2023-09-18T06:07:02;4.90;;;4.50;;
37483;SDS011;23337;52.212;9.926;2023-09-18T06:09:28;5.37;;;4.53;;
37483;SDS011;23337;52.212;9.926;2023-09-18T06:11:54;5.33;;;4.83;;
37483;SDS011;23337;52.212;9.926;2023-09-18T06:14:20;6.60;;;4.70;;
37483;SDS011;23337;52.212;9.926;2023-09-18T06:16:46;4.80;;;4.33;;
37483;SDS011;23337;52.212;9.926;2023-09-18T06:19:12;4.70;;;4.30;;
37483;SDS011;23337;52.212;9.926;2023-09-18T06:21:38;5.03;;;4.63;;
37483;SDS011;23337;52.212;9.926;2023-09-18T06:24:04;5.90;;;4.30;;
37483;SDS011;23337;52.212;9.926;2023-09-18T06:26:31;4.90;;;4.50;;
37483;SDS011;23337;52.212;9.926;2023-09-18T06:28:57;4.87;;;4.37;;
37483;SDS011;23337;52.212;9.926;2023-09-18T06:31:23;5.07;;;4.63;;
37483;SDS011;23337;52.212;9.926;2023-09-18T06:33:49;4.90;;;4.43;;
37483;SDS011;23337;52.212;9.926;2023-09-18T06:36:15;4.70;;;4.30;;
37483;SDS011;23337;52.212;9.926;2023-09-18T06:38:41;4.27;;;3.87;;
37483;SDS011;23337;52.212;9.926;2023-09-18T06:41:07;4.60;;;4.30;;
37483;SDS011;23337;52.212;9.926;2023-09-18T06:43:33;5.17;;;4.67;;
37483;SDS011;23337;52.212;9.926;2023-09-18T06:45:59;4.73;;;4.23;;
37483;SDS011;23337;52.212;9.926;2023-09-18T06:48:25;5.60;;;3.97;;
37483;SDS011;23337;52.212;9.926;2023-09-18T06:50:51;5.87;;;4.67;;
37483;SDS011;23337;52.212;9.926;2023-09-18T06:53:17;5.17;;;4.13;;
37483;SDS011;23337;52.212;9.926;2023-09-18T06:55:43;4.77;;;4.20;;
37483;SDS011;23337;52.212;9.926;2023-09-18T06:58:09;4.93;;;4.53;;
37483;SDS011;23337;52.212;9.926;2023-09-18T07:00:35;3.87;;;3.57;;
37483;SDS011;23337;52.212;9.926;2023-09-18T07:03:01;7.03;;;4.60;;
37483;SDS011;23337;52.212;9.926;2023-09-18T07:05:27;4.67;;;3.83;;
37483;SDS011;23337;52.212;9.926;2023-09-18T07:07:53;4.40;;;4.00;;
37483;SDS011;23337;52.212;9.926;2023-09-18T07:10:20;4.23;;;3.83;;
37483;SDS011;23337;52.212;9.926;2023-09-18T07:12:46;4.80;;;3.77;;
37483;SDS011;23337;52.212;9.926;2023-09-18T07:15:12;5.30;;;3.87;;
37483;SDS011;23337;52.212;9.926;2023-09-18T07:17:38;5.67;;;4.50;;
37483;SDS011;23337;52.212;9.926;2023-09-18T07:20:04;5.87;;;4.23;;
37483;SDS011;23337;52.212;9.926;2023-09-18T07:22:38;4.53;;;4.10;;
37483;SDS011;23337;52.212;9.926;2023-09-18T07:25:04;4.93;;;3.73;;
37483;SDS011;23337;52.212;9.926;2023-09-18T07:27:31;4.10;;;3.70;;
37483;SDS011;23337;52.212;9.926;2023-09-18T07:29:57;5.53;;;4.03;;
37483;SDS011;23337;52.212;9.926;2023-09-18T07:32:24;5.20;;;4.27;;
37483;SDS011;23337;52.212;9.926;2023-09-18T07:34:52;5.17;;;4.27;;
37483;SDS011;23337;52.212;9.926;2023-09-18T07:37:18;5.10;;;4.07;;
37483;SDS011;23337;52.212;9.926;2023-09-18T07:39:46;5.27;;;3.77;;
37483;SDS011;23337;52.212;9.926;2023-09-18T07:42:12;5.53;;;3.77;;
37483;SDS011;23337;52.212;9.926;2023-09-18T07:44:38;4.27;;;3.87;;
37483;SDS011;23337;52.212;9.926;2023-09-18T07:47:03;6.07;;;3.60;;
37483;SDS011;23337;52.212;9.926;2023-09-18T07:49:29;5.40;;;4.90;;
37483;SDS011;23337;52.212;9.926;2023-09-18T07:51:56;7.13;;;4.10;;
37483;SDS011;23337;52.212;9.926;2023-09-18T07:54:22;5.23;;;4.23;;
37483;SDS011;23337;52.212;9.926;2023-09-18T07:56:48;6.33;;;4.57;;
37483;SDS011;23337;52.212;9.926;2023-09-18T07:59:14;8.17;;;3.83;;
37483;SDS011;23337;52.212;9.926;2023-09-18T08:01:40;6.10;;;4.00;;
37483;SDS011;23337;52.212;9.926;2023-09-18T08:04:06;6.83;;;3.70;;
37483;SDS011;23337;52.212;9.926;2023-09-18T08:06:32;6.83;;;3.60;;
37483;SDS011;23337;52.212;9.926;2023-09-18T08:08:59;5.57;;;4.53;;
37483;SDS011;23337;52.212;9.926;2023-09-18T08:11:26;7.27;;;4.00;;
37483;SDS011;23337;52.212;9.926;2023-09-18T08:13:52;7.70;;;4.63;;
37483;SDS011;23337;52.212;9.926;2023-09-18T08:16:17;6.30;;;3.80;;
37483;SDS011;23337;52.212;9.926;2023-09-18T08:18:44;5.73;;;3.67;;
37483;SDS011;23337;52.212;9.926;2023-09-18T08:21:10;8.37;;;3.70;;
37483;SDS011;23337;52.212;9.926;2023-09-18T08:23:38;7.27;;;3.90;;
37483;SDS011;23337;52.212;9.926;2023-09-18T08:26:04;5.23;;;3.43;;
37483;SDS011;23337;52.212;9.926;2023-09-18T08:28:30;5.37;;;3.70;;
37483;SDS011;23337;52.212;9.926;2023-09-18T08:30:56;8.53;;;3.47;;
37483;SDS011;23337;52.212;9.926;2023-09-18T08:33:23;6.43;;;2.87;;
37483;SDS011;23337;52.212;9.926;2023-09-18T08:35:49;6.13;;;3.73;;
37483;SDS011;23337;52.212;9.926;2023-09-18T08:38:15;7.20;;;4.33;;
37483;SDS011;23337;52.212;9.926;2023-09-18T08:40:41;5.50;;;2.90;;
37483;SDS011;23337;52.212;9.926;2023-09-18T08:43:07;8.77;;;3.90;;
37483;SDS011;23337;52.212;9.926;2023-09-18T08:45:35;6.80;;;3.43;;
37483;SDS011;23337;52.212;9.926;2023-09-18T08:48:03;4.97;;;3.20;;
37483;SDS011;23337;52.212;9.926;2023-09-18T08:50:30;9.30;;;3.63;;
37483;SDS011;23337;52.212;9.926;2023-09-18T08:52:56;6.07;;;3.90;;
37483;SDS011;23337;52.212;9.926;2023-09-18T08:55:22;6.50;;;3.20;;
37483;SDS011;23337;52.212;9.926;2023-09-18T08:57:49;7.87;;;3.80;;
37483;SDS011;23337;52.212;9.926;2023-09-18T09:00:15;7.90;;;4.00;;
37483;SDS011;23337;52.212;9.926;2023-09-18T09:02:45;4.43;;;2.73;;
37483;SDS011;23337;52.212;9.926;2023-09-18T09:05:13;6.50;;;3.10;;
37483;SDS011;23337;52.212;9.926;2023-09-18T09:07:40;6.73;;;3.17;;
37483;SDS011;23337;52.212;9.926;2023-09-18T09:10:06;7.67;;;3.47;;
37483;SDS011;23337;52.212;9.926;2023-09-18T09:15:14;7.73;;;3.60;;
37483;SDS011;23337;52.212;9.926;2023-09-18T09:17:41;8.20;;;3.20;;
37483;SDS011;23337;52.212;9.926;2023-09-18T09:20:11;5.67;;;3.20;;
37483;SDS011;23337;52.212;9.926;2023-09-18T09:22:37;8.27;;;2.90;;
37483;SDS011;23337;52.212;9.926;2023-09-18T09:25:05;5.30;;;2.87;;
37483;SDS011;23337;52.212;9.926;2023-09-18T09:27:47;6.73;;;2.87;;
37483;SDS011;23337;52.212;9.926;2023-09-18T09:30:22;7.13;;;2.93;;
37483;SDS011;23337;52.212;9.926;2023-09-18T09:32:49;4.60;;;2.50;;
37483;SDS011;23337;52.212;9.926;2023-09-18T09:35:22;6.87;;;2.67;;
37483;SDS011;23337;52.212;9.926;2023-09-18T09:37:51;6.17;;;2.83;;
37483;SDS011;23337;52.212;9.926;2023-09-18T09:40:18;9.37;;;3.27;;
37483;SDS011;23337;52.212;9.926;2023-09-18T09:42:44;6.77;;;3.17;;
37483;SDS011;23337;52.212;9.926;2023-09-18T09:45:13;11.70;;;3.77;;
37483;SDS011;23337;52.212;9.926;2023-09-18T09:47:41;7.43;;;2.70;;
37483;SDS011;23337;52.212;9.926;2023-09-18T09:50:08;7.27;;;2.90;;
37483;SDS011;23337;52.212;9.926;2023-09-18T09:52:35;5.67;;;2.70;;
37483;SDS011;23337;52.212;9.926;2023-09-18T09:55:02;5.33;;;2.67;;
37483;SDS011;23337;52.212;9.926;2023-09-18T09:57:30;7.60;;;3.07;;
37483;SDS011;23337;52.212;9.926;2023-09-18T10:00:03;5.20;;;2.50;;
37483;SDS011;23337;52.212;9.926;2023-09-18T10:02:47;9.00;;;2.77;;
37483;SDS011;23337;52.212;9.926;2023-09-18T10:05:14;7.57;;;2.10;;
37483;SDS011;23337;52.212;9.926;2023-09-18T10:07:42;6.73;;;2.53;;
37483;SDS011;23337;52.212;9.926;2023-09-18T10:10:08;8.37;;;2.33;;
37483;SDS011;23337;52.212;9.926;2023-09-18T10:12:34;5.60;;;2.70;;
37483;SDS011;23337;52.212;9.926;2023-09-18T10:15:01;6.00;;;2.20;;
37483;SDS011;23337;52.212;9.926;2023-09-18T10:17:28;8.13;;;2.67;;
37483;SDS011;23337;52.212;9.926;2023-09-18T10:22:30;5.23;;;2.53;;
37483;SDS011;23337;52.212;9.926;2023-09-18T10:25:18;4.50;;;2.73;;
37483;SDS011;23337;52.212;9.926;2023-09-18T10:27:47;2.73;;;1.67;;
37483;SDS011;23337;52.212;9.926;2023-09-18T10:30:23;4.00;;;2.20;;
37483;SDS011;23337;52.212;9.926;2023-09-18T10:32:50;6.13;;;2.33;;
37483;SDS011;23337;52.212;9.926;2023-09-18T10:35:16;6.53;;;2.23;;
37483;SDS011;23337;52.212;9.926;2023-09-18T10:37:45;4.50;;;2.37;;
37483;SDS011;23337;52.212;9.926;2023-09-18T10:40:11;6.30;;;1.93;;
37483;SDS011;23337;52.212;9.926;2023-09-18T10:42:38;5.50;;;2.80;;
37483;SDS011;23337;52.212;9.926;2023-09-18T10:45:05;8.27;;;2.43;;
37483;SDS011;23337;52.212;9.926;2023-09-18T10:47:31;6.53;;;2.60;;
37483;SDS011;23337;52.212;9.926;2023-09-18T10:49:59;5.00;;;2.20;;
37483;SDS011;23337;52.212;9.926;2023-09-18T10:52:26;3.80;;;2.87;;
37483;SDS011;23337;52.212;9.926;2023-09-18T10:54:52;5.50;;;2.00;;
37483;SDS011;23337;52.212;9.926;2023-09-18T10:57:18;3.70;;;2.17;;
37483;SDS011;23337;52.212;9.926;2023-09-18T10:59:45;4.03;;;2.33;;
37483;SDS011;23337;52.212;9.926;2023-09-18T11:02:13;5.40;;;2.13;;
37483;SDS011;23337;52.212;9.926;2023-09-18T11:04:40;3.73;;;2.30;;
37483;SDS011;23337;52.212;9.926;2023-09-18T11:07:06;4.53;;;1.80;;
37483;SDS011;23337;52.212;9.926;2023-09-18T11:09:43;6.63;;;1.83;;
37483;SDS011;23337;52.212;9.926;2023-09-18T11:12:10;3.33;;;2.03;;
37483;SDS011;23337;52.212;9.926;2023-09-18T11:22:30;3.90;;;2.00;;
37483;SDS011;23337;52.212;9.926;2023-09-18T11:25:28;5.30;;;2.63;;
37483;SDS011;23337;52.212;9.926;2023-09-18T11:27:54;5.33;;;1.80;;
37483;SDS011;23337;52.212;9.926;2023-09-18T11:30:21;6.77;;;1.90;;
37483;SDS011;23337;52.212;9.926;2023-09-18T11:32:47;5.53;;;2.00;;
37483;SDS011;23337;52.212;9.926;2023-09-18T11:35:13;5.20;;;2.60;;
37483;SDS011;23337;52.212;9.926;2023-09-18T11:37:42;7.30;;;2.27;;
37483;SDS011;23337;52.212;9.926;2023-09-18T11:40:26;4.83;;;2.20;;
37483;SDS011;23337;52.212;9.926;2023-09-18T11:43:18;8.43;;;2.40;;
37483;SDS011;23337;52.212;9.926;2023-09-18T11:45:43;3.57;;;2.13;;
37483;SDS011;23337;52.212;9.926;2023-09-18T11:48:12;8.27;;;2.00;;
37483;SDS011;23337;52.212;9.926;2023-09-18T11:50:40;3.40;;;1.60;;
37483;SDS011;23337;52.212;9.926;2023-09-18T11:53:07;3.93;;;2.27;;
37483;SDS011;23337;52.212;9.926;2023-09-18T11:55:33;5.73;;;1.83;;
37483;SDS011;23337;52.212;9.926;2023-09-18T11:57:59;3.50;;;1.70;;
37483;SDS011;23337;52.212;9.926;2023-09-18T12:00:26;4.83;;;2.20;;
37483;SDS011;23337;52.212;9.926;2023-09-18T12:02:54;5.37;;;2.03;;
37483;SDS011;23337;52.212;9.926;2023-09-18T12:05:21;10.70;;;1.87;;
37483;SDS011;23337;52.212;9.926;2023-09-18T12:07:51;3.40;;;1.63;;
37483;SDS011;23337;52.212;9.926;2023-09-18T12:10:18;4.33;;;2.00;;
37483;SDS011;23337;52.212;9.926;2023-09-18T12:12:46;8.97;;;2.30;;
37483;SDS011;23337;52.212;9.926;2023-09-18T12:15:12;8.90;;;2.10;;
37483;SDS011;23337;52.212;9.926;2023-09-18T12:17:40;3.27;;;1.70;;
37483;SDS011;23337;52.212;9.926;2023-09-18T12:20:06;5.23;;;1.60;;
37483;SDS011;23337;52.212;9.926;2023-09-18T12:22:32;2.53;;;1.50;;
37483;SDS011;23337;52.212;9.926;2023-09-18T12:25:08;3.20;;;1.60;;
37483;SDS011;23337;52.212;9.926;2023-09-18T12:27:35;5.27;;;1.83;;
37483;SDS011;23337;52.212;9.926;2023-09-18T12:30:02;4.70;;;1.70;;
37483;SDS011;23337;52.212;9.926;2023-09-18T12:32:29;5.30;;;2.07;;
37483;SDS011;23337;52.212;9.926;2023-09-18T12:34:57;4.67;;;1.60;;
37483;SDS011;23337;52.212;9.926;2023-09-18T12:37:23;3.13;;;2.10;;
37483;SDS011;23337;52.212;9.926;2023-09-18T12:39:49;3.00;;;1.50;;
37483;SDS011;23337;52.212;9.926;2023-09-18T12:42:17;5.67;;;1.60;;
37483;SDS011;23337;52.212;9.926;2023-09-18T12:44:43;4.30;;;1.70;;
37483;SDS011;23337;52.212;9.926;2023-09-18T12:47:09;4.13;;;1.83;;
37483;SDS011;23337;52.212;9.926;2023-09-18T12:49:35;4.20;;;1.70;;
37483;SDS011;23337;52.212;9.926;2023-09-18T12:52:02;3.67;;;1.50;;
37483;SDS011;23337;52.212;9.926;2023-09-18T12:54:41;3.80;;;1.53;;
37483;SDS011;23337;52.212;9.926;2023-09-18T12:57:07;4.20;;;1.40;;
37483;SDS011;23337;52.212;9.926;2023-09-18T12:59:34;8.10;;;2.57;;
37483;SDS011;23337;52.212;9.926;2023-09-18T13:02:01;3.60;;;2.00;;
37483;SDS011;23337;52.212;9.926;2023-09-18T13:04:29;5.03;;;1.60;;
37483;SDS011;23337;52.212;9.926;2023-09-18T13:07:12;5.03;;;1.90;;
37483;SDS011;23337;52.212;9.926;2023-09-18T13:09:39;2.53;;;1.73;;
37483;SDS011;23337;52.212;9.926;2023-09-18T13:12:05;2.90;;;1.60;;
37483;SDS011;23337;52.212;9.926;2023-09-18T13:14:56;2.67;;;1.67;;
37483;SDS011;23337;52.212;9.926;2023-09-18T13:17:17;3.43;;;1.83;;
37483;SDS011;23337;52.212;9.926;2023-09-18T13:19:43;3.30;;;1.57;;
37483;SDS011;23337;52.212;9.926;2023-09-18T13:22:10;3.97;;;1.70;;
37483;SDS011;23337;52.212;9.926;2023-09-18T13:24:36;3.37;;;1.40;;
37483;SDS011;23337;52.212;9.926;2023-09-18T13:27:02;3.33;;;1.40;;
37483;SDS011;23337;52.212;9.926;2023-09-18T13:29:28;5.33;;;1.83;;
37483;SDS011;23337;52.212;9.926;2023-09-18T13:31:54;3.47;;;1.77;;
37483;SDS011;23337;52.212;9.926;2023-09-18T13:34:21;3.67;;;1.80;;
37483;SDS011;23337;52.212;9.926;2023-09-18T13:36:47;2.97;;;1.93;;
37483;SDS011;23337;52.212;9.926;2023-09-18T13:39:13;5.87;;;1.63;;
37483;SDS011;23337;52.212;9.926;2023-09-18T13:41:43;3.50;;;1.53;;
37483;SDS011;23337;52.212;9.926;2023-09-18T13:44:09;3.23;;;1.60;;
37483;SDS011;23337;52.212;9.926;2023-09-18T13:46:36;4.30;;;1.87;;
37483;SDS011;23337;52.212;9.926;2023-09-18T13:49:05;5.90;;;2.23;;
37483;SDS011;23337;52.212;9.926;2023-09-18T13:51:31;4.67;;;1.77;;
37483;SDS011;23337;52.212;9.926;2023-09-18T13:53:57;4.17;;;1.87;;
37483;SDS011;23337;52.212;9.926;2023-09-18T13:56:23;3.33;;;1.67;;
37483;SDS011;23337;52.212;9.926;2023-09-18T13:58:53;2.70;;;2.10;;
37483;SDS011;23337;52.212;9.926;2023-09-18T14:01:19;5.43;;;1.63;;
37483;SDS011;23337;52.212;9.926;2023-09-18T14:03:45;4.07;;;1.73;;
37483;SDS011;23337;52.212;9.926;2023-09-18T14:06:11;3.33;;;1.47;;
37483;SDS011;23337;52.212;9.926;2023-09-18T14:08:37;5.37;;;2.13;;
37483;SDS011;23337;52.212;9.926;2023-09-18T14:11:05;3.10;;;1.33;;
37483;SDS011;23337;52.212;9.926;2023-09-18T14:13:31;4.47;;;2.10;;
37483;SDS011;23337;52.212;9.926;2023-09-18T14:15:57;3.03;;;1.70;;
37483;SDS011;23337;52.212;9.926;2023-09-18T14:18:24;5.87;;;1.67;;
37483;SDS011;23337;52.212;9.926;2023-09-18T14:20:50;2.30;;;1.30;;
37483;SDS011;23337;52.212;9.926;2023-09-18T14:23:16;4.33;;;1.80;;
37483;SDS011;23337;52.212;9.926;2023-09-18T14:25:42;2.30;;;1.20;;
37483;SDS011;23337;52.212;9.926;2023-09-18T14:28:07;4.93;;;1.90;;
37483;SDS011;23337;52.212;9.926;2023-09-18T14:30:33;3.97;;;1.70;;
37483;SDS011;23337;52.212;9.926;2023-09-18T14:32:59;3.67;;;1.57;;
37483;SDS011;23337;52.212;9.926;2023-09-18T14:35:26;3.40;;;1.67;;
37483;SDS011;23337;52.212;9.926;2023-09-18T14:37:52;2.60;;;1.23;;
37483;SDS011;23337;52.212;9.926;2023-09-18T14:40:18;4.77;;;1.40;;
37483;SDS011;23337;52.212;9.926;2023-09-18T14:42:46;5.40;;;1.63;;
37483;SDS011;23337;52.212;9.926;2023-09-18T14:45:12;5.07;;;1.70;;
37483;SDS011;23337;52.212;9.926;2023-09-18T14:47:38;4.17;;;1.70;;
37483;SDS011;23337;52.212;9.926;2023-09-18T14:50:04;4.33;;;1.67;;
37483;SDS011;23337;52.212;9.926;2023-09-18T14:52:30;3.60;;;1.70;;
37483;SDS011;23337;52.212;9.926;2023-09-18T14:54:57;2.83;;;1.13;;
37483;SDS011;23337;52.212;9.926;2023-09-18T14:57:23;2.57;;;1.50;;
37483;SDS011;23337;52.212;9.926;2023-09-18T14:59:49;3.70;;;1.80;;
37483;SDS011;23337;52.212;9.926;2023-09-18T15:02:15;5.63;;;1.80;;